Pelican State — WDE4433 — position and weather

sailwx.info

Track history (hours):
 
Tides and Currents Weather Stations Pressure Air Temp Water Temp Dewpoint Dewpoint Depression Visibility Wind Speed Wind Dir Waves Ship Positions

Pelican State

Owner: Crowley Petroleum Serives, Jacksonville, FL. More information available from US FCC via Universal Licensing System and Coast Guard Vessel Documentation Center.

Last reported at 2017-Mar-29 12:11 UTC. Time now 2017-Mar-30 16:25 UTC.
Position N 39°07' W 125°06'.

Length 183 m; draft 8.6 m.

Type: Tanker. MMSI: 367353110.

Date/timePositionNaut miles runAvg speedWind from/ knotsBaromVisibWave heightAir tempDewpointWater temp
2017-Mar-29 12:11N 39°07' W 125°06'1111.8
2017-Mar-29 11:15N 38°57' W 124°60'811.6
2017-Mar-29 10:34N 38°50' W 124°55'1211.6
2017-Mar-29 09:33N 38°40' W 124°47'1211.7
2017-Mar-29 08:33N 38°30' W 124°39'1111.4
2017-Mar-29 07:34N 38°20' W 124°32'1111.3
2017-Mar-29 06:33N 38°10' W 124°25'1111.4
2017-Mar-29 05:34N 38°00' W 124°18'1111.2
2017-Mar-29 04:34N 37°50' W 124°11'1110.7
2017-Mar-29 03:34N 37°45' W 123°60'1111.3
2017-Mar-29 02:34N 37°41' W 123°46'1111.3
2017-Mar-29 01:34N 37°38' W 123°33'1010.1
2017-Mar-29 00:34N 37°34' W 123°20'10 9.6
2017-Mar-28 23:33N 37°33' W 123°08'10 9.6
2017-Mar-28 22:33N 37°37' W 122°57'1010.3
2017-Mar-28 21:33N 37°43' W 122°46'8 8.1
2017-Mar-28 20:33N 37°46' W 122°37'1110.9
2017-Mar-28 19:34N 37°51' W 122°25'4 4.2
2017-Mar-28 18:33N 37°55' W 122°22'0 0.0
2017-Mar-28 17:34N 37°55' W 122°22'0 0.0
2017-Mar-28 16:33N 37°55' W 122°22'0 0.0
2017-Mar-28 15:34N 37°55' W 122°22'0 0.0
2017-Mar-28 14:33N 37°55' W 122°22'0 0.0
2017-Mar-28 13:33N 37°55' W 122°22'0 0.0
2017-Mar-28 12:33N 37°55' W 122°22'0 0.0
2017-Mar-28 11:33N 37°55' W 122°22'0 0.0
2017-Mar-28 10:33N 37°55' W 122°22'0 0.0
2017-Mar-28 09:34N 37°55' W 122°22'0 0.0
2017-Mar-28 08:32N 37°55' W 122°22'0 0.0
2017-Mar-28 07:33N 37°55' W 122°22'0 0.0
2017-Mar-28 06:33N 37°55' W 122°22'0 0.0
2017-Mar-28 05:33N 37°55' W 122°22'0 0.0
2017-Mar-28 04:33N 37°55' W 122°22'0 0.0
2017-Mar-28 03:34N 37°55' W 122°22'0 0.0
2017-Mar-28 02:33N 37°55' W 122°22'0 0.0
2017-Mar-28 01:33N 37°55' W 122°22'0 0.0
2017-Mar-28 00:33N 37°55' W 122°22'0 0.0
2017-Mar-27 23:33N 37°55' W 122°22'0 0.0
2017-Mar-27 22:33N 37°55' W 122°22'0 0.0
2017-Mar-27 21:33N 37°55' W 122°22'0 0.0
2017-Mar-27 20:31N 37°55' W 122°22'0 0.0
2017-Mar-27 19:33N 37°55' W 122°22'0 0.0
2017-Mar-27 17:29N 37°55' W 122°22'0 0.0
2017-Mar-27 16:33N 37°55' W 122°22'0 0.0
2017-Mar-27 15:33N 37°55' W 122°22'0 0.0
2017-Mar-27 14:33N 37°55' W 122°22'0 0.0
2017-Mar-27 13:32N 37°55' W 122°22'0 0.0
2017-Mar-27 12:29N 37°55' W 122°22'0 0.0
2017-Mar-27 11:31N 37°55' W 122°22'0 0.0
2017-Mar-27 10:33N 37°55' W 122°22'0 0.0
2017-Mar-27 09:33N 37°55' W 122°22'0 0.0
2017-Mar-27 08:34N 37°55' W 122°22'0 0.0
2017-Mar-27 07:33N 37°55' W 122°22'0 0.0
2017-Mar-27 06:33N 37°55' W 122°22'0 0.0
2017-Mar-27 05:32N 37°55' W 122°22'0 0.0
2017-Mar-27 04:33N 37°55' W 122°22'0 0.0
2017-Mar-27 02:34N 37°55' W 122°22'0 0.0
2017-Mar-27 01:34N 37°55' W 122°22'0 0.0
2017-Mar-27 00:34N 37°55' W 122°22'0 0.0
2017-Mar-26 23:33N 37°55' W 122°22'0 0.0
2017-Mar-26 22:33N 37°55' W 122°22'0 0.0
2017-Mar-26 21:33N 37°55' W 122°22'0 0.0
2017-Mar-26 20:33N 37°55' W 122°22'1 1.1
2017-Mar-26 19:33N 37°54' W 122°23'6 5.9
2017-Mar-26 18:33N 37°50' W 122°28'1212.5
2017-Mar-26 17:34N 37°44' W 122°42'10 9.6
2017-Mar-26 16:33N 37°38' W 122°52'10 9.9
2017-Mar-26 15:34N 37°33' W 123°02'9 8.6
2017-Mar-26 14:32N 37°33' W 123°13'1212.0
2017-Mar-26 13:32N 37°36' W 123°28'1514.9
2017-Mar-26 12:33N 37°41' W 123°45'4514.1
2017-Mar-26 09:21N 38°11' W 124°27'  
2017-Mar-24 04:11N 48°14' W 125°16'5 7.3
2017-Mar-24 03:31N 48°18' W 125°13'10 9.8
2017-Mar-24 02:32N 48°26' W 125°06'1212.1
2017-Mar-24 01:34N 48°31' W 124°49'1514.8
2017-Mar-24 00:33N 48°26' W 124°28'1615.6
2017-Mar-23 23:33N 48°20' W 124°06'1615.8
2017-Mar-23 22:33N 48°16' W 123°43'1414.1
2017-Mar-23 21:33N 48°11' W 123°23'3 2.7
2017-Mar-23 20:29N 48°08' W 123°25'0 0.1
2017-Mar-23 19:32N 48°08' W 123°25'0 0.1
2017-Mar-23 18:32N 48°08' W 123°25'0 0.1
2017-Mar-23 17:32N 48°08' W 123°25'0 0.0
2017-Mar-23 16:32N 48°08' W 123°25'0 0.0
2017-Mar-23 15:29N 48°08' W 123°25'0 0.0
2017-Mar-23 14:32N 48°08' W 123°25'0 0.1
2017-Mar-23 13:32N 48°08' W 123°25'0 0.0
2017-Mar-23 12:32N 48°08' W 123°25'0 0.0
2017-Mar-23 11:32N 48°08' W 123°25'0 0.1
2017-Mar-23 10:32N 48°08' W 123°25'0 0.1
2017-Mar-23 09:33N 48°08' W 123°25'6 6.3
2017-Mar-23 08:33N 48°11' W 123°16'1211.8
2017-Mar-23 07:33N 48°18' W 123°03'1211.7
2017-Mar-23 06:33N 48°24' W 122°48'9 9.5
2017-Mar-23 05:33N 48°34' W 122°45'10 9.8
2017-Mar-23 04:33N 48°44' W 122°46'8 0.2
2017-Mar-21 12:33N 48°52' W 122°46'3 2.8
2017-Mar-21 11:33N 48°49' W 122°46'1110.7
2017-Mar-21 10:33N 48°38' W 122°44'1010.4
2017-Mar-21 09:33N 48°28' W 122°45'1111.2
2017-Mar-21 08:33N 48°20' W 122°57'1413.6
2017-Mar-21 07:33N 48°13' W 123°14'10 9.9
2017-Mar-21 06:33N 48°12' W 123°29'1212.0
2017-Mar-21 05:33N 48°13' W 123°47'1111.3
2017-Mar-21 04:33N 48°16' W 124°03'1111.5
2017-Mar-21 03:33N 48°21' W 124°19'1212.1
2017-Mar-21 02:33N 48°26' W 124°36'1211.7
2017-Mar-21 01:33N 48°29' W 124°53'1010.4
2017-Mar-21 00:33N 48°22' W 125°05'1211.9
2017-Mar-20 23:31N 48°12' W 125°14'8912.0
2017-Mar-20 16:07N 46°45' W 125°46'2214.0
2017-Mar-20 14:33N 46°23' W 125°46'1613.5
2017-Mar-20 13:20N 46°07' W 125°46'1213.2
2017-Mar-20 12:27N 45°55' W 125°46'1313.1
2017-Mar-20 11:29N 45°42' W 125°46'1213.0
2017-Mar-20 10:33N 45°30' W 125°46'1412.7
2017-Mar-20 09:29N 45°17' W 125°45'1312.6
2017-Mar-20 08:28N 45°04' W 125°46'1212.9
2017-Mar-20 07:33N 44°52' W 125°46'1412.8
2017-Mar-20 06:25N 44°38' W 125°45'2812.3
2017-Mar-20 04:07N 44°09' W 125°45'712.2
2017-Mar-20 03:30N 44°02' W 125°45'1212.4
2017-Mar-20 02:33N 43°50' W 125°46'1312.6
2017-Mar-20 01:33N 43°37' W 125°46'  
Track history (hours):
 
Tides and Currents Weather Stations Pressure Air Temp Water Temp Dewpoint Dewpoint Depression Visibility Wind Speed Wind Dir Waves Ship Positions

Pelican State

Owner: Crowley Petroleum Serives, Jacksonville, FL. More information available from US FCC via Universal Licensing System and Coast Guard Vessel Documentation Center.

Last reported at 2017-Mar-29 12:11 UTC. Time now 2017-Mar-30 16:25 UTC.
Position N 39°07' W 125°06'.

Length 183 m; draft 8.6 m.

Type: Tanker. MMSI: 367353110.

Date/timePositionNaut miles runAvg speedWind from/ knotsBaromVisibWave heightAir tempDewpointWater temp
2017-Mar-29 12:11N 39°07' W 125°06'1111.8
2017-Mar-29 11:15N 38°57' W 124°60'811.6
2017-Mar-29 10:34N 38°50' W 124°55'1211.6
2017-Mar-29 09:33N 38°40' W 124°47'1211.7
2017-Mar-29 08:33N 38°30' W 124°39'1111.4
2017-Mar-29 07:34N 38°20' W 124°32'1111.3
2017-Mar-29 06:33N 38°10' W 124°25'1111.4
2017-Mar-29 05:34N 38°00' W 124°18'1111.2
2017-Mar-29 04:34N 37°50' W 124°11'1110.7
2017-Mar-29 03:34N 37°45' W 123°60'1111.3
2017-Mar-29 02:34N 37°41' W 123°46'1111.3
2017-Mar-29 01:34N 37°38' W 123°33'1010.1
2017-Mar-29 00:34N 37°34' W 123°20'10 9.6
2017-Mar-28 23:33N 37°33' W 123°08'10 9.6
2017-Mar-28 22:33N 37°37' W 122°57'1010.3
2017-Mar-28 21:33N 37°43' W 122°46'8 8.1
2017-Mar-28 20:33N 37°46' W 122°37'1110.9
2017-Mar-28 19:34N 37°51' W 122°25'4 4.2
2017-Mar-28 18:33N 37°55' W 122°22'0 0.0
2017-Mar-28 17:34N 37°55' W 122°22'0 0.0
2017-Mar-28 16:33N 37°55' W 122°22'0 0.0
2017-Mar-28 15:34N 37°55' W 122°22'0 0.0
2017-Mar-28 14:33N 37°55' W 122°22'0 0.0
2017-Mar-28 13:33N 37°55' W 122°22'0 0.0
2017-Mar-28 12:33N 37°55' W 122°22'0 0.0
2017-Mar-28 11:33N 37°55' W 122°22'0 0.0
2017-Mar-28 10:33N 37°55' W 122°22'0 0.0
2017-Mar-28 09:34N 37°55' W 122°22'0 0.0
2017-Mar-28 08:32N 37°55' W 122°22'0 0.0
2017-Mar-28 07:33N 37°55' W 122°22'0 0.0
2017-Mar-28 06:33N 37°55' W 122°22'0 0.0
2017-Mar-28 05:33N 37°55' W 122°22'0 0.0
2017-Mar-28 04:33N 37°55' W 122°22'0 0.0
2017-Mar-28 03:34N 37°55' W 122°22'0 0.0
2017-Mar-28 02:33N 37°55' W 122°22'0 0.0
2017-Mar-28 01:33N 37°55' W 122°22'0 0.0
2017-Mar-28 00:33N 37°55' W 122°22'0 0.0
2017-Mar-27 23:33N 37°55' W 122°22'0 0.0
2017-Mar-27 22:33N 37°55' W 122°22'0 0.0
2017-Mar-27 21:33N 37°55' W 122°22'0 0.0
2017-Mar-27 20:31N 37°55' W 122°22'0 0.0
2017-Mar-27 19:33N 37°55' W 122°22'0 0.0
2017-Mar-27 17:29N 37°55' W 122°22'0 0.0
2017-Mar-27 16:33N 37°55' W 122°22'0 0.0
2017-Mar-27 15:33N 37°55' W 122°22'0 0.0
2017-Mar-27 14:33N 37°55' W 122°22'0 0.0
2017-Mar-27 13:32N 37°55' W 122°22'0 0.0
2017-Mar-27 12:29N 37°55' W 122°22'0 0.0
2017-Mar-27 11:31N 37°55' W 122°22'0 0.0
2017-Mar-27 10:33N 37°55' W 122°22'0 0.0
2017-Mar-27 09:33N 37°55' W 122°22'0 0.0
2017-Mar-27 08:34N 37°55' W 122°22'0 0.0
2017-Mar-27 07:33N 37°55' W 122°22'0 0.0
2017-Mar-27 06:33N 37°55' W 122°22'0 0.0
2017-Mar-27 05:32N 37°55' W 122°22'0 0.0
2017-Mar-27 04:33N 37°55' W 122°22'0 0.0
2017-Mar-27 02:34N 37°55' W 122°22'0 0.0
2017-Mar-27 01:34N 37°55' W 122°22'0 0.0
2017-Mar-27 00:34N 37°55' W 122°22'0 0.0
2017-Mar-26 23:33N 37°55' W 122°22'0 0.0
2017-Mar-26 22:33N 37°55' W 122°22'0 0.0
2017-Mar-26 21:33N 37°55' W 122°22'0 0.0
2017-Mar-26 20:33N 37°55' W 122°22'1 1.1
2017-Mar-26 19:33N 37°54' W 122°23'6 5.9
2017-Mar-26 18:33N 37°50' W 122°28'1212.5
2017-Mar-26 17:34N 37°44' W 122°42'10 9.6
2017-Mar-26 16:33N 37°38' W 122°52'10 9.9
2017-Mar-26 15:34N 37°33' W 123°02'9 8.6
2017-Mar-26 14:32N 37°33' W 123°13'1212.0
2017-Mar-26 13:32N 37°36' W 123°28'1514.9
2017-Mar-26 12:33N 37°41' W 123°45'4514.1
2017-Mar-26 09:21N 38°11' W 124°27'  
2017-Mar-24 04:11N 48°14' W 125°16'5 7.3
2017-Mar-24 03:31N 48°18' W 125°13'10 9.8
2017-Mar-24 02:32N 48°26' W 125°06'1212.1
2017-Mar-24 01:34N 48°31' W 124°49'1514.8
2017-Mar-24 00:33N 48°26' W 124°28'1615.6
2017-Mar-23 23:33N 48°20' W 124°06'1615.8
2017-Mar-23 22:33N 48°16' W 123°43'1414.1
2017-Mar-23 21:33N 48°11' W 123°23'3 2.7
2017-Mar-23 20:29N 48°08' W 123°25'0 0.1
2017-Mar-23 19:32N 48°08' W 123°25'0 0.1
2017-Mar-23 18:32N 48°08' W 123°25'0 0.1
2017-Mar-23 17:32N 48°08' W 123°25'0 0.0
2017-Mar-23 16:32N 48°08' W 123°25'0 0.0
2017-Mar-23 15:29N 48°08' W 123°25'0 0.0
2017-Mar-23 14:32N 48°08' W 123°25'0 0.1
2017-Mar-23 13:32N 48°08' W 123°25'0 0.0
2017-Mar-23 12:32N 48°08' W 123°25'0 0.0
2017-Mar-23 11:32N 48°08' W 123°25'0 0.1
2017-Mar-23 10:32N 48°08' W 123°25'0 0.1
2017-Mar-23 09:33N 48°08' W 123°25'6 6.3
2017-Mar-23 08:33N 48°11' W 123°16'1211.8
2017-Mar-23 07:33N 48°18' W 123°03'1211.7
2017-Mar-23 06:33N 48°24' W 122°48'9 9.5
2017-Mar-23 05:33N 48°34' W 122°45'10 9.8
2017-Mar-23 04:33N 48°44' W 122°46'8 0.2
2017-Mar-21 12:33N 48°52' W 122°46'3 2.8
2017-Mar-21 11:33N 48°49' W 122°46'1110.7
2017-Mar-21 10:33N 48°38' W 122°44'1010.4
2017-Mar-21 09:33N 48°28' W 122°45'1111.2
2017-Mar-21 08:33N 48°20' W 122°57'1413.6
2017-Mar-21 07:33N 48°13' W 123°14'10 9.9
2017-Mar-21 06:33N 48°12' W 123°29'1212.0
2017-Mar-21 05:33N 48°13' W 123°47'1111.3
2017-Mar-21 04:33N 48°16' W 124°03'1111.5
2017-Mar-21 03:33N 48°21' W 124°19'1212.1
2017-Mar-21 02:33N 48°26' W 124°36'1211.7
2017-Mar-21 01:33N 48°29' W 124°53'1010.4
2017-Mar-21 00:33N 48°22' W 125°05'1211.9
2017-Mar-20 23:31N 48°12' W 125°14'8912.0
2017-Mar-20 16:07N 46°45' W 125°46'2214.0
2017-Mar-20 14:33N 46°23' W 125°46'1613.5
2017-Mar-20 13:20N 46°07' W 125°46'1213.2
2017-Mar-20 12:27N 45°55' W 125°46'1313.1
2017-Mar-20 11:29N 45°42' W 125°46'1213.0
2017-Mar-20 10:33N 45°30' W 125°46'1412.7
2017-Mar-20 09:29N 45°17' W 125°45'1312.6
2017-Mar-20 08:28N 45°04' W 125°46'1212.9
2017-Mar-20 07:33N 44°52' W 125°46'1412.8
2017-Mar-20 06:25N 44°38' W 125°45'2812.3
2017-Mar-20 04:07N 44°09' W 125°45'712.2
2017-Mar-20 03:30N 44°02' W 125°45'1212.4
2017-Mar-20 02:33N 43°50' W 125°46'1312.6
2017-Mar-20 01:33N 43°37' W 125°46'  

Dump ship's entire track history